sensor_id;sensor_type;location;lat;lon;timestamp;pressure;altitude;pressure_sealevel;temperature;humidity
8366;BME280;4220;42.502;24.188;2023-04-02T00:02:46;94337.56;;;7.41;100.00
8366;BME280;4220;42.502;24.188;2023-04-02T00:05:38;94338.22;;;7.37;100.00
8366;BME280;4220;42.502;24.188;2023-04-02T00:08:19;94324.88;;;7.32;100.00
8366;BME280;4220;42.502;24.188;2023-04-02T00:10:47;94323.69;;;7.46;100.00
8366;BME280;4220;42.502;24.188;2023-04-02T00:13:22;94321.56;;;7.54;100.00
8366;BME280;4220;42.502;24.188;2023-04-02T00:15:53;94317.47;;;7.58;100.00
8366;BME280;4220;42.502;24.188;2023-04-02T00:18:21;94317.47;;;7.58;100.00
8366;BME280;4220;42.502;24.188;2023-04-02T00:20:52;94314.16;;;7.63;100.00
8366;BME280;4220;42.502;24.188;2023-04-02T00:23:21;94327.97;;;7.76;100.00
8366;BME280;4220;42.502;24.188;2023-04-02T00:25:49;94321.81;;;7.82;100.00
8366;BME280;4220;42.502;24.188;2023-04-02T00:28:19;94320.19;;;7.81;100.00
8366;BME280;4220;42.502;24.188;2023-04-02T00:30:49;94288.97;;;7.49;100.00
8366;BME280;4220;42.502;24.188;2023-04-02T00:33:19;94296.84;;;7.67;100.00
8366;BME280;4220;42.502;24.188;2023-04-02T00:35:47;94309.03;;;7.68;100.00
8366;BME280;4220;42.502;24.188;2023-04-02T00:38:19;94314.06;;;7.69;100.00
8366;BME280;4220;42.502;24.188;2023-04-02T00:40:48;94310.72;;;7.62;100.00
8366;BME280;4220;42.502;24.188;2023-04-02T00:43:18;94311.53;;;7.63;100.00
8366;BME280;4220;42.502;24.188;2023-04-02T00:45:48;94267.66;;;7.32;100.00
8366;BME280;4220;42.502;24.188;2023-04-02T00:48:36;94311.16;;;7.59;100.00
8366;BME280;4220;42.502;24.188;2023-04-02T00:51:14;94300.59;;;7.59;100.00
8366;BME280;4220;42.502;24.188;2023-04-02T00:53:44;94314.59;;;7.60;100.00
8366;BME280;4220;42.502;24.188;2023-04-02T00:56:16;94317.22;;;7.60;100.00
8366;BME280;4220;42.502;24.188;2023-04-02T00:58:50;94302.06;;;7.55;100.00
8366;BME280;4220;42.502;24.188;2023-04-02T01:01:18;94300.00;;;7.57;100.00
8366;BME280;4220;42.502;24.188;2023-04-02T01:03:55;94298.19;;;7.58;100.00
8366;BME280;4220;42.502;24.188;2023-04-02T01:06:25;94297.38;;;7.57;100.00
8366;BME280;4220;42.502;24.188;2023-04-02T01:09:28;94282.78;;;7.55;100.00
8366;BME280;4220;42.502;24.188;2023-04-02T01:12:22;94306.09;;;7.58;100.00
8366;BME280;4220;42.502;24.188;2023-04-02T01:14:59;94296.69;;;7.62;100.00
8366;BME280;4220;42.502;24.188;2023-04-02T01:17:43;94295.69;;;7.63;100.00
8366;BME280;4220;42.502;24.188;2023-04-02T01:23:16;94290.28;;;7.58;100.00
8366;BME280;4220;42.502;24.188;2023-04-02T01:25:48;94294.06;;;7.62;100.00
8366;BME280;4220;42.502;24.188;2023-04-02T01:28:19;94296.13;;;7.60;100.00
8366;BME280;4220;42.502;24.188;2023-04-02T01:30:53;94291.28;;;7.57;100.00
8366;BME280;4220;42.502;24.188;2023-04-02T01:33:22;94303.69;;;7.56;100.00
8366;BME280;4220;42.502;24.188;2023-04-02T01:35:56;94320.78;;;7.54;100.00
8366;BME280;4220;42.502;24.188;2023-04-02T01:38:29;94235.88;;;7.09;100.00
8366;BME280;4220;42.502;24.188;2023-04-02T01:41:01;94311.91;;;7.48;100.00
8366;BME280;4220;42.502;24.188;2023-04-02T01:43:36;94322.75;;;7.40;100.00
8366;BME280;4220;42.502;24.188;2023-04-02T01:46:27;94311.31;;;7.28;100.00
8366;BME280;4220;42.502;24.188;2023-04-02T01:48:54;94325.69;;;7.32;100.00
8366;BME280;4220;42.502;24.188;2023-04-02T01:51:26;94310.97;;;7.24;100.00
8366;BME280;4220;42.502;24.188;2023-04-02T01:53:55;94313.75;;;7.30;100.00
8366;BME280;4220;42.502;24.188;2023-04-02T01:56:25;94322.09;;;7.27;100.00
8366;BME280;4220;42.502;24.188;2023-04-02T01:58:52;94323.69;;;7.28;100.00
8366;BME280;4220;42.502;24.188;2023-04-02T02:01:22;94320.03;;;7.29;100.00
8366;BME280;4220;42.502;24.188;2023-04-02T02:03:52;94306.56;;;7.18;100.00
8366;BME280;4220;42.502;24.188;2023-04-02T02:06:21;94318.41;;;7.28;100.00
8366;BME280;4220;42.502;24.188;2023-04-02T02:08:52;94307.88;;;7.28;100.00
8366;BME280;4220;42.502;24.188;2023-04-02T02:11:22;94312.78;;;7.24;100.00
8366;BME280;4220;42.502;24.188;2023-04-02T02:13:52;94305.69;;;7.24;100.00
8366;BME280;4220;42.502;24.188;2023-04-02T02:16:20;94303.06;;;7.24;100.00
8366;BME280;4220;42.502;24.188;2023-04-02T02:18:50;94293.75;;;7.22;100.00
8366;BME280;4220;42.502;24.188;2023-04-02T02:21:28;94302.59;;;7.28;100.00
8366;BME280;4220;42.502;24.188;2023-04-02T02:24:01;94299.19;;;7.27;100.00
8366;BME280;4220;42.502;24.188;2023-04-02T02:26:30;94300.78;;;7.28;100.00
8366;BME280;4220;42.502;24.188;2023-04-02T02:29:02;94284.50;;;7.31;100.00
8366;BME280;4220;42.502;24.188;2023-04-02T02:31:33;94284.22;;;7.39;100.00
8366;BME280;4220;42.502;24.188;2023-04-02T02:34:05;94281.63;;;7.51;100.00
8366;BME280;4220;42.502;24.188;2023-04-02T02:36:38;94291.28;;;7.57;100.00
8366;BME280;4220;42.502;24.188;2023-04-02T02:39:13;94257.84;;;7.39;100.00
8366;BME280;4220;42.502;24.188;2023-04-02T02:41:44;94295.00;;;7.67;100.00
8366;BME280;4220;42.502;24.188;2023-04-02T02:44:16;94294.34;;;7.72;100.00
8366;BME280;4220;42.502;24.188;2023-04-02T02:46:48;94296.41;;;7.70;100.00
8366;BME280;4220;42.502;24.188;2023-04-02T02:49:21;94299.75;;;7.77;100.00
8366;BME280;4220;42.502;24.188;2023-04-02T02:51:56;94317.78;;;7.80;100.00
8366;BME280;4220;42.502;24.188;2023-04-02T02:54:24;94312.81;;;7.72;100.00
8366;BME280;4220;42.502;24.188;2023-04-02T02:56:56;94322.78;;;7.70;100.00
8366;BME280;4220;42.502;24.188;2023-04-02T02:59:24;94328.66;;;7.72;100.00
8366;BME280;4220;42.502;24.188;2023-04-02T03:01:51;94326.47;;;7.69;100.00
8366;BME280;4220;42.502;24.188;2023-04-02T03:04:20;94337.03;;;7.69;100.00
8366;BME280;4220;42.502;24.188;2023-04-02T03:06:51;94329.47;;;7.54;100.00
8366;BME280;4220;42.502;24.188;2023-04-02T03:09:21;94346.41;;;7.65;100.00
8366;BME280;4220;42.502;24.188;2023-04-02T03:11:58;94345.69;;;7.58;100.00
8366;BME280;4220;42.502;24.188;2023-04-02T03:14:32;94353.38;;;7.59;100.00
8366;BME280;4220;42.502;24.188;2023-04-02T03:17:04;94337.19;;;7.56;100.00
8366;BME280;4220;42.502;24.188;2023-04-02T03:19:39;94345.31;;;7.54;100.00
8366;BME280;4220;42.502;24.188;2023-04-02T03:22:14;94338.28;;;7.48;100.00
8366;BME280;4220;42.502;24.188;2023-04-02T03:24:48;94342.31;;;7.51;100.00
8366;BME280;4220;42.502;24.188;2023-04-02T03:27:20;94322.41;;;7.37;100.00
8366;BME280;4220;42.502;24.188;2023-04-02T03:29:57;94340.34;;;7.46;100.00
8366;BME280;4220;42.502;24.188;2023-04-02T03:32:29;94344.00;;;7.45;100.00
8366;BME280;4220;42.502;24.188;2023-04-02T03:35:00;94356.03;;;7.41;100.00
8366;BME280;4220;42.502;24.188;2023-04-02T03:37:35;94348.09;;;7.41;100.00
8366;BME280;4220;42.502;24.188;2023-04-02T03:40:08;94351.72;;;7.47;100.00
8366;BME280;4220;42.502;24.188;2023-04-02T03:42:38;94356.75;;;7.48;100.00
8366;BME280;4220;42.502;24.188;2023-04-02T03:45:11;94361.88;;;7.43;100.00
8366;BME280;4220;42.502;24.188;2023-04-02T03:47:45;94350.22;;;7.33;100.00
8366;BME280;4220;42.502;24.188;2023-04-02T03:50:17;94353.16;;;7.43;100.00
8366;BME280;4220;42.502;24.188;2023-04-02T03:52:48;94353.88;;;7.50;100.00
8366;BME280;4220;42.502;24.188;2023-04-02T03:55:18;94336.91;;;7.46;100.00
8366;BME280;4220;42.502;24.188;2023-04-02T03:57:53;94350.97;;;7.58;100.00
8366;BME280;4220;42.502;24.188;2023-04-02T04:00:28;94355.78;;;7.61;100.00
8366;BME280;4220;42.502;24.188;2023-04-02T04:03:02;94357.41;;;7.62;100.00
8366;BME280;4220;42.502;24.188;2023-04-02T04:05:34;94356.22;;;7.76;100.00
8366;BME280;4220;42.502;24.188;2023-04-02T04:08:07;94361.94;;;7.91;100.00
8366;BME280;4220;42.502;24.188;2023-04-02T04:10:39;94368.59;;;7.94;100.00
8366;BME280;4220;42.502;24.188;2023-04-02T04:13:11;94371.16;;;7.82;100.00
8366;BME280;4220;42.502;24.188;2023-04-02T04:15:41;94368.25;;;7.72;100.00
8366;BME280;4220;42.502;24.188;2023-04-02T04:18:19;94361.81;;;7.68;100.00
8366;BME280;4220;42.502;24.188;2023-04-02T04:20:50;94353.31;;;7.66;100.00
8366;BME280;4220;42.502;24.188;2023-04-02T04:23:26;94362.19;;;7.71;100.00
8366;BME280;4220;42.502;24.188;2023-04-02T04:25:59;94361.13;;;7.72;100.00
8366;BME280;4220;42.502;24.188;2023-04-02T04:28:33;94363.56;;;7.74;100.00
8366;BME280;4220;42.502;24.188;2023-04-02T04:31:12;94371.75;;;7.84;100.00
8366;BME280;4220;42.502;24.188;2023-04-02T04:33:44;94358.78;;;7.82;100.00
8366;BME280;4220;42.502;24.188;2023-04-02T04:36:21;94374.31;;;7.90;100.00
8366;BME280;4220;42.502;24.188;2023-04-02T04:38:55;94365.50;;;7.97;100.00
8366;BME280;4220;42.502;24.188;2023-04-02T04:41:27;94368.50;;;8.00;100.00
8366;BME280;4220;42.502;24.188;2023-04-02T04:44:00;94372.75;;;8.01;100.00
8366;BME280;4220;42.502;24.188;2023-04-02T04:46:34;94369.09;;;8.02;100.00
8366;BME280;4220;42.502;24.188;2023-04-02T04:49:08;94376.44;;;8.00;100.00
8366;BME280;4220;42.502;24.188;2023-04-02T04:51:41;94379.56;;;8.09;100.00
8366;BME280;4220;42.502;24.188;2023-04-02T04:54:13;94373.94;;;8.05;100.00
8366;BME280;4220;42.502;24.188;2023-04-02T04:56:44;94374.06;;;8.10;100.00
8366;BME280;4220;42.502;24.188;2023-04-02T04:59:16;94377.28;;;8.12;100.00
8366;BME280;4220;42.502;24.188;2023-04-02T05:01:49;94381.09;;;8.16;100.00
8366;BME280;4220;42.502;24.188;2023-04-02T05:04:20;94376.91;;;8.27;100.00
8366;BME280;4220;42.502;24.188;2023-04-02T05:06:52;94375.22;;;8.32;100.00
8366;BME280;4220;42.502;24.188;2023-04-02T05:09:26;94373.72;;;8.36;100.00
8366;BME280;4220;42.502;24.188;2023-04-02T05:12:01;94379.47;;;8.33;100.00
8366;BME280;4220;42.502;24.188;2023-04-02T05:14:35;94368.19;;;8.26;100.00
8366;BME280;4220;42.502;24.188;2023-04-02T05:17:07;94376.09;;;8.26;100.00
8366;BME280;4220;42.502;24.188;2023-04-02T05:19:40;94379.16;;;8.23;100.00
8366;BME280;4220;42.502;24.188;2023-04-02T05:22:19;94374.09;;;8.22;100.00
8366;BME280;4220;42.502;24.188;2023-04-02T05:25:13;94376.91;;;8.27;100.00
8366;BME280;4220;42.502;24.188;2023-04-02T05:27:43;94369.94;;;8.32;100.00
8366;BME280;4220;42.502;24.188;2023-04-02T05:30:31;94374.84;;;8.29;100.00
8366;BME280;4220;42.502;24.188;2023-04-02T05:33:03;94379.72;;;8.43;100.00
8366;BME280;4220;42.502;24.188;2023-04-02T05:35:34;94381.91;;;8.46;100.00
8366;BME280;4220;42.502;24.188;2023-04-02T05:38:02;94383.53;;;8.47;100.00
8366;BME280;4220;42.502;24.188;2023-04-02T05:40:34;94379.03;;;8.48;100.00
8366;BME280;4220;42.502;24.188;2023-04-02T05:43:07;94375.75;;;8.52;100.00
8366;BME280;4220;42.502;24.188;2023-04-02T05:45:36;94354.59;;;8.52;100.00
8366;BME280;4220;42.502;24.188;2023-04-02T05:48:09;94398.06;;;8.80;100.00
8366;BME280;4220;42.502;24.188;2023-04-02T05:50:42;94395.13;;;8.88;100.00
8366;BME280;4220;42.502;24.188;2023-04-02T05:53:14;94393.53;;;8.87;100.00
8366;BME280;4220;42.502;24.188;2023-04-02T05:55:50;94404.91;;;8.99;100.00
8366;BME280;4220;42.502;24.188;2023-04-02T05:58:26;94408.13;;;9.01;100.00
8366;BME280;4220;42.502;24.188;2023-04-02T06:01:05;94426.41;;;9.14;100.00
8366;BME280;4220;42.502;24.188;2023-04-02T06:03:41;94318.75;;;8.45;99.54
8366;BME280;4220;42.502;24.188;2023-04-02T06:06:14;94420.09;;;9.03;99.89
8366;BME280;4220;42.502;24.188;2023-04-02T06:08:49;94425.28;;;9.10;100.00
8366;BME280;4220;42.502;24.188;2023-04-02T06:11:22;94382.00;;;8.93;100.00
8366;BME280;4220;42.502;24.188;2023-04-02T06:13:51;94435.97;;;9.27;98.38
8366;BME280;4220;42.502;24.188;2023-04-02T06:16:20;94421.03;;;9.32;98.44
8366;BME280;4220;42.502;24.188;2023-04-02T06:18:50;94423.56;;;9.39;96.70
8366;BME280;4220;42.502;24.188;2023-04-02T06:21:19;94437.59;;;9.39;97.08
8366;BME280;4220;42.502;24.188;2023-04-02T06:23:51;94428.19;;;9.43;96.88
8366;BME280;4220;42.502;24.188;2023-04-02T06:26:23;94437.38;;;9.52;97.15
8366;BME280;4220;42.502;24.188;2023-04-02T06:28:56;94438.19;;;9.53;97.02
8366;BME280;4220;42.502;24.188;2023-04-02T06:31:29;94447.03;;;9.47;96.96
8366;BME280;4220;42.502;24.188;2023-04-02T06:34:00;94424.50;;;9.44;96.10
8366;BME280;4220;42.502;24.188;2023-04-02T06:36:28;94431.63;;;9.44;96.24
8366;BME280;4220;42.502;24.188;2023-04-02T06:39:00;94440.94;;;9.46;97.04
8366;BME280;4220;42.502;24.188;2023-04-02T06:41:31;94439.56;;;9.55;98.18
8366;BME280;4220;42.502;24.188;2023-04-02T06:44:00;94438.63;;;9.61;94.72
8366;BME280;4220;42.502;24.188;2023-04-02T06:46:33;94441.41;;;9.66;94.94
8366;BME280;4220;42.502;24.188;2023-04-02T06:49:09;94453.03;;;9.77;95.54
8366;BME280;4220;42.502;24.188;2023-04-02T06:51:39;94452.47;;;9.75;93.93
8366;BME280;4220;42.502;24.188;2023-04-02T06:54:12;94440.59;;;9.77;95.15
8366;BME280;4220;42.502;24.188;2023-04-02T06:56:44;94449.78;;;9.86;95.59
8366;BME280;4220;42.502;24.188;2023-04-02T06:59:12;94413.09;;;9.67;95.33
8366;BME280;4220;42.502;24.188;2023-04-02T07:01:43;94455.19;;;9.92;94.41
8366;BME280;4220;42.502;24.188;2023-04-02T07:04:12;94448.53;;;9.89;94.79
8366;BME280;4220;42.502;24.188;2023-04-02T07:06:38;94451.38;;;9.99;94.61
8366;BME280;4220;42.502;24.188;2023-04-02T07:09:05;94464.03;;;10.09;93.15
8366;BME280;4220;42.502;24.188;2023-04-02T07:11:32;94457.81;;;10.15;92.42
8366;BME280;4220;42.502;24.188;2023-04-02T07:14:01;94471.97;;;10.32;92.13
8366;BME280;4220;42.502;24.188;2023-04-02T07:16:30;94462.81;;;10.39;91.29
8366;BME280;4220;42.502;24.188;2023-04-02T07:18:57;94470.28;;;10.54;91.10
8366;BME280;4220;42.502;24.188;2023-04-02T07:21:26;94462.41;;;10.59;90.07
8366;BME280;4220;42.502;24.188;2023-04-02T07:23:53;94476.47;;;10.60;89.32
8366;BME280;4220;42.502;24.188;2023-04-02T07:26:22;94480.47;;;10.74;90.39
8366;BME280;4220;42.502;24.188;2023-04-02T07:28:49;94484.47;;;10.88;88.46
8366;BME280;4220;42.502;24.188;2023-04-02T07:31:19;94501.41;;;10.87;88.17
8366;BME280;4220;42.502;24.188;2023-04-02T07:33:47;94532.63;;;10.96;87.48
8366;BME280;4220;42.502;24.188;2023-04-02T07:36:15;94492.06;;;10.84;87.46
8366;BME280;4220;42.502;24.188;2023-04-02T07:38:42;94466.16;;;11.03;87.82
8366;BME280;4220;42.502;24.188;2023-04-02T07:41:10;94488.75;;;11.05;87.14
8366;BME280;4220;42.502;24.188;2023-04-02T07:43:38;94489.22;;;11.02;87.07
8366;BME280;4220;42.502;24.188;2023-04-02T07:46:06;94457.38;;;10.86;86.50
8366;BME280;4220;42.502;24.188;2023-04-02T07:48:35;94468.75;;;11.14;86.98
8366;BME280;4220;42.502;24.188;2023-04-02T07:51:01;94474.78;;;11.27;86.70
8366;BME280;4220;42.502;24.188;2023-04-02T07:53:30;94460.97;;;11.25;86.80
8366;BME280;4220;42.502;24.188;2023-04-02T07:55:59;94483.25;;;11.57;85.77
8366;BME280;4220;42.502;24.188;2023-04-02T07:58:27;94487.34;;;11.48;85.46
8366;BME280;4220;42.502;24.188;2023-04-02T08:00:55;94478.97;;;11.56;84.99
8366;BME280;4220;42.502;24.188;2023-04-02T08:03:22;94494.63;;;11.69;84.17
8366;BME280;4220;42.502;24.188;2023-04-02T08:05:51;94482.06;;;11.81;84.42
8366;BME280;4220;42.502;24.188;2023-04-02T08:08:18;94484.94;;;11.79;82.96
8366;BME280;4220;42.502;24.188;2023-04-02T08:10:45;94475.31;;;11.73;83.29
8366;BME280;4220;42.502;24.188;2023-04-02T08:13:12;94486.22;;;11.94;82.79
8366;BME280;4220;42.502;24.188;2023-04-02T08:15:39;94507.31;;;12.00;82.07
8366;BME280;4220;42.502;24.188;2023-04-02T08:18:06;94490.41;;;12.06;82.44
8366;BME280;4220;42.502;24.188;2023-04-02T08:20:33;94497.38;;;12.12;83.69
8366;BME280;4220;42.502;24.188;2023-04-02T08:23:12;94494.53;;;12.19;83.00
8366;BME280;4220;42.502;24.188;2023-04-02T08:25:39;94470.78;;;12.12;81.54
8366;BME280;4220;42.502;24.188;2023-04-02T08:28:07;94477.44;;;12.31;81.68
8366;BME280;4220;42.502;24.188;2023-04-02T08:30:34;94496.34;;;12.35;80.65
8366;BME280;4220;42.502;24.188;2023-04-02T08:33:02;94494.56;;;12.40;80.02
8366;BME280;4220;42.502;24.188;2023-04-02T08:35:29;94489.41;;;12.56;81.69
8366;BME280;4220;42.502;24.188;2023-04-02T08:37:56;94498.66;;;12.70;80.23
8366;BME280;4220;42.502;24.188;2023-04-02T08:40:26;94505.41;;;12.77;81.05
8366;BME280;4220;42.502;24.188;2023-04-02T08:43:17;94513.34;;;12.99;80.01
8366;BME280;4220;42.502;24.188;2023-04-02T08:45:56;94525.78;;;13.15;79.50
8366;BME280;4220;42.502;24.188;2023-04-02T08:48:25;94483.53;;;12.97;77.60
8366;BME280;4220;42.502;24.188;2023-04-02T08:50:52;94519.09;;;13.13;77.75
8366;BME280;4220;42.502;24.188;2023-04-02T08:53:21;94483.25;;;13.20;76.14
8366;BME280;4220;42.502;24.188;2023-04-02T08:55:55;94495.66;;;13.36;75.19
8366;BME280;4220;42.502;24.188;2023-04-02T08:58:38;94434.44;;;12.88;75.57
8366;BME280;4220;42.502;24.188;2023-04-02T09:01:14;94494.84;;;13.36;75.59
8366;BME280;4220;42.502;24.188;2023-04-02T09:03:44;94487.41;;;13.38;74.06
8366;BME280;4220;42.502;24.188;2023-04-02T09:06:16;94449.22;;;13.27;73.31
8366;BME280;4220;42.502;24.188;2023-04-02T09:08:45;94498.59;;;13.71;73.13
8366;BME280;4220;42.502;24.188;2023-04-02T09:11:20;94517.88;;;13.84;72.60
8366;BME280;4220;42.502;24.188;2023-04-02T09:13:53;94491.91;;;13.69;71.94
8366;BME280;4220;42.502;24.188;2023-04-02T09:16:25;94506.63;;;13.76;69.66
8366;BME280;4220;42.502;24.188;2023-04-02T09:18:59;94495.41;;;13.69;69.53
8366;BME280;4220;42.502;24.188;2023-04-02T09:21:32;94511.47;;;13.80;70.52
8366;BME280;4220;42.502;24.188;2023-04-02T09:24:01;94499.00;;;13.85;71.91
8366;BME280;4220;42.502;24.188;2023-04-02T09:26:31;94503.16;;;14.13;72.02
8366;BME280;4220;42.502;24.188;2023-04-02T09:29:01;94480.47;;;14.10;71.65
8366;BME280;4220;42.502;24.188;2023-04-02T09:31:43;94485.56;;;14.12;70.71
8366;BME280;4220;42.502;24.188;2023-04-02T09:34:30;94503.63;;;14.00;70.61
8366;BME280;4220;42.502;24.188;2023-04-02T09:37:06;94487.16;;;14.08;70.06
8366;BME280;4220;42.502;24.188;2023-04-02T09:39:33;94487.19;;;14.18;70.01
8366;BME280;4220;42.502;24.188;2023-04-02T09:42:06;94498.69;;;14.23;68.98
8366;BME280;4220;42.502;24.188;2023-04-02T09:44:33;94484.56;;;14.23;69.80
8366;BME280;4220;42.502;24.188;2023-04-02T09:47:03;94500.13;;;14.36;72.00
8366;BME280;4220;42.502;24.188;2023-04-02T09:49:31;94493.59;;;14.17;71.89
8366;BME280;4220;42.502;24.188;2023-04-02T09:52:20;94483.72;;;14.12;72.19
8366;BME280;4220;42.502;24.188;2023-04-02T09:55:17;94478.72;;;14.26;71.65
8366;BME280;4220;42.502;24.188;2023-04-02T09:57:47;94465.50;;;14.46;66.84
8366;BME280;4220;42.502;24.188;2023-04-02T10:00:17;94483.13;;;14.52;64.46
8366;BME280;4220;42.502;24.188;2023-04-02T10:02:59;94493.06;;;14.62;64.74
8366;BME280;4220;42.502;24.188;2023-04-02T10:05:26;94486.69;;;14.73;64.39
8366;BME280;4220;42.502;24.188;2023-04-02T10:07:55;94473.63;;;14.71;62.92
8366;BME280;4220;42.502;24.188;2023-04-02T10:10:34;94473.94;;;14.90;60.31
8366;BME280;4220;42.502;24.188;2023-04-02T10:13:06;94476.34;;;14.96;61.04
8366;BME280;4220;42.502;24.188;2023-04-02T10:15:37;94488.09;;;14.85;59.39
8366;BME280;4220;42.502;24.188;2023-04-02T10:18:11;94481.69;;;14.91;61.38
8366;BME280;4220;42.502;24.188;2023-04-02T10:20:41;94480.88;;;14.81;62.07
8366;BME280;4220;42.502;24.188;2023-04-02T10:23:14;94464.06;;;14.90;62.40
8366;BME280;4220;42.502;24.188;2023-04-02T10:25:47;94464.91;;;15.11;61.18
8366;BME280;4220;42.502;24.188;2023-04-02T10:28:27;94455.84;;;15.17;60.26
8366;BME280;4220;42.502;24.188;2023-04-02T10:31:01;94456.13;;;15.11;60.82
8366;BME280;4220;42.502;24.188;2023-04-02T10:33:36;94455.53;;;14.93;61.43
8366;BME280;4220;42.502;24.188;2023-04-02T10:36:08;94475.25;;;14.87;63.82
8366;BME280;4220;42.502;24.188;2023-04-02T10:38:41;94458.69;;;14.80;65.13
8366;BME280;4220;42.502;24.188;2023-04-02T10:41:21;94453.94;;;14.97;65.85
8366;BME280;4220;42.502;24.188;2023-04-02T10:44:06;94430.75;;;15.08;65.50
8366;BME280;4220;42.502;24.188;2023-04-02T10:46:44;94441.44;;;15.43;64.17
8366;BME280;4220;42.502;24.188;2023-04-02T10:49:20;94434.25;;;15.79;60.60
8366;BME280;4220;42.502;24.188;2023-04-02T10:51:57;94436.59;;;16.21;60.65
8366;BME280;4220;42.502;24.188;2023-04-02T10:54:44;94449.16;;;16.20;60.95
8366;BME280;4220;42.502;24.188;2023-04-02T10:57:22;94432.31;;;16.15;59.85
8366;BME280;4220;42.502;24.188;2023-04-02T10:59:55;94442.16;;;16.34;58.96
8366;BME280;4220;42.502;24.188;2023-04-02T11:02:31;94444.59;;;16.31;59.96
8366;BME280;4220;42.502;24.188;2023-04-02T11:05:04;94449.94;;;16.31;59.47
8366;BME280;4220;42.502;24.188;2023-04-02T11:07:42;94439.97;;;16.42;60.14
8366;BME280;4220;42.502;24.188;2023-04-02T11:10:13;94441.31;;;16.39;59.38
8366;BME280;4220;42.502;24.188;2023-04-02T11:12:47;94443.28;;;16.18;60.39
8366;BME280;4220;42.502;24.188;2023-04-02T11:15:18;94447.03;;;16.07;61.52
8366;BME280;4220;42.502;24.188;2023-04-02T11:17:46;94411.00;;;15.75;61.53
8366;BME280;4220;42.502;24.188;2023-04-02T11:20:47;94449.72;;;16.02;60.35
8366;BME280;4220;42.502;24.188;2023-04-02T11:23:21;94447.09;;;15.87;60.32
8366;BME280;4220;42.502;24.188;2023-04-02T11:25:48;94416.28;;;15.95;60.80
8366;BME280;4220;42.502;24.188;2023-04-02T11:28:25;94446.94;;;16.43;59.58
8366;BME280;4220;42.502;24.188;2023-04-02T11:30:55;94448.00;;;16.57;58.16
8366;BME280;4220;42.502;24.188;2023-04-02T11:33:36;94429.03;;;16.53;59.01
8366;BME280;4220;42.502;24.188;2023-04-02T11:39:45;94430.34;;;16.51;59.22
8366;BME280;4220;42.502;24.188;2023-04-02T11:42:22;94428.22;;;16.43;55.72
8366;BME280;4220;42.502;24.188;2023-04-02T11:44:50;94427.97;;;16.29;56.53
8366;BME280;4220;42.502;24.188;2023-04-02T11:47:20;94425.88;;;16.26;57.19
8366;BME280;4220;42.502;24.188;2023-04-02T11:49:59;94407.38;;;16.34;56.42
8366;BME280;4220;42.502;24.188;2023-04-02T11:52:33;94424.97;;;16.66;56.32
8366;BME280;4220;42.502;24.188;2023-04-02T11:55:17;94402.81;;;16.99;53.79
8366;BME280;4220;42.502;24.188;2023-04-02T11:58:05;94413.78;;;17.41;53.02
8366;BME280;4220;42.502;24.188;2023-04-02T12:01:01;94413.91;;;17.21;51.06
8366;BME280;4220;42.502;24.188;2023-04-02T12:06:50;94409.22;;;17.76;49.76
8366;BME280;4220;42.502;24.188;2023-04-02T12:09:20;94410.81;;;17.77;49.93
8366;BME280;4220;42.502;24.188;2023-04-02T12:11:49;94405.59;;;17.61;48.56
8366;BME280;4220;42.502;24.188;2023-04-02T12:14:40;94396.56;;;17.47;50.19
8366;BME280;4220;42.502;24.188;2023-04-02T12:17:16;94419.22;;;17.65;50.01
8366;BME280;4220;42.502;24.188;2023-04-02T12:19:48;94420.03;;;17.66;50.97
8366;BME280;4220;42.502;24.188;2023-04-02T12:22:19;94425.56;;;17.74;50.08
8366;BME280;4220;42.502;24.188;2023-04-02T12:24:48;94417.41;;;17.89;50.91
8366;BME280;4220;42.502;24.188;2023-04-02T12:27:20;94408.19;;;18.24;49.10
8366;BME280;4220;42.502;24.188;2023-04-02T12:29:48;94416.13;;;18.34;47.84
8366;BME280;4220;42.502;24.188;2023-04-02T12:32:19;94394.78;;;18.24;46.70
8366;BME280;4220;42.502;24.188;2023-04-02T12:34:50;94400.75;;;18.16;47.85
8366;BME280;4220;42.502;24.188;2023-04-02T12:37:20;94395.38;;;18.16;48.26
8366;BME280;4220;42.502;24.188;2023-04-02T12:39:52;94390.41;;;18.28;48.30
8366;BME280;4220;42.502;24.188;2023-04-02T12:42:27;94338.19;;;17.73;47.87
8366;BME280;4220;42.502;24.188;2023-04-02T12:44:54;94388.50;;;18.10;48.54
8366;BME280;4220;42.502;24.188;2023-04-02T12:47:21;94391.84;;;17.97;48.12
8366;BME280;4220;42.502;24.188;2023-04-02T12:49:50;94402.97;;;18.09;48.48
8366;BME280;4220;42.502;24.188;2023-04-02T12:52:19;94368.50;;;17.97;47.68
8366;BME280;4220;42.502;24.188;2023-04-02T12:54:48;94396.16;;;18.45;47.55
8366;BME280;4220;42.502;24.188;2023-04-02T12:57:20;94394.41;;;18.59;47.25
8366;BME280;4220;42.502;24.188;2023-04-02T12:59:47;94383.16;;;18.57;47.25
8366;BME280;4220;42.502;24.188;2023-04-02T13:02:18;94393.19;;;18.89;44.88
8366;BME280;4220;42.502;24.188;2023-04-02T13:04:46;94390.22;;;18.72;44.03
8366;BME280;4220;42.502;24.188;2023-04-02T13:07:17;94389.28;;;18.81;42.80
8366;BME280;4220;42.502;24.188;2023-04-02T13:09:46;94393.47;;;18.87;41.53
8366;BME280;4220;42.502;24.188;2023-04-02T13:12:32;94396.16;;;18.45;41.67
8366;BME280;4220;42.502;24.188;2023-04-02T13:15:02;94380.69;;;17.85;42.20
8366;BME280;4220;42.502;24.188;2023-04-02T13:17:40;94383.00;;;17.68;44.07
8366;BME280;4220;42.502;24.188;2023-04-02T13:20:28;94388.53;;;17.42;43.36
8366;BME280;4220;42.502;24.188;2023-04-02T13:22:57;94388.84;;;17.41;43.64
8366;BME280;4220;42.502;24.188;2023-04-02T13:25:28;94395.44;;;17.58;43.65
8366;BME280;4220;42.502;24.188;2023-04-02T13:27:55;94400.56;;;17.84;43.65
8366;BME280;4220;42.502;24.188;2023-04-02T13:30:24;94379.00;;;17.94;42.99
8366;BME280;4220;42.502;24.188;2023-04-02T13:32:52;94381.72;;;17.89;42.65
8366;BME280;4220;42.502;24.188;2023-04-02T13:35:19;94370.31;;;17.44;43.77
8366;BME280;4220;42.502;24.188;2023-04-02T13:37:47;94377.31;;;17.40;44.59
8366;BME280;4220;42.502;24.188;2023-04-02T13:40:16;94364.41;;;17.42;43.68
8366;BME280;4220;42.502;24.188;2023-04-02T13:42:44;94370.47;;;17.87;43.47
8366;BME280;4220;42.502;24.188;2023-04-02T13:45:19;94373.03;;;18.49;42.08
8366;BME280;4220;42.502;24.188;2023-04-02T13:47:47;94357.88;;;18.58;41.00
8366;BME280;4220;42.502;24.188;2023-04-02T13:50:16;94359.94;;;17.67;41.66
8366;BME280;4220;42.502;24.188;2023-04-02T13:52:43;94353.56;;;17.62;42.80